Terminal Aerodrome Forecast
Issued by NWS Sioux Falls, SD

Home | Current Version | Previous Version | Text Only | Print | Product List | Glossary On
Versions: 1 2 3 4 5 6 7 8 9 10 11 12 13 14 15 16 17 18 19 20 21 22 23 24 25
956
FTUS43 KFSD 081728
TAFSUX
TAF
KSUX 081728Z 0818/0918 33027G39KT 6SM -SN OVC035
      TEMPO 0818/0820 5SM -SN BLSN BKN025
     FM082100 33027G36KT P6SM BKN040
     FM082300 34024G32KT P6SM SCT150
     FM090100 34016G24KT P6SM SCT150
     FM091200 33018KT P6SM BKN250=

USA.gov is the U.S. government's official web portal to all federal, state and local government web resources and services.